Time;durP1;ratioP1;P1;durP2;ratioP2;P2;SDS_P1;SDS_P2;PMS_P1;PMS_P2;Temp;Humidity;BMP_temperature;BMP_pressure;BME280_temperature;BME280_humidity;BME280_pressure;Samples;Min_cycle;Max_cycle;Signal;HPM_P1;HPM_P2
2022/10/20 00:01:41;;;;;;;;;;;;;;;3.61;86.27;99313.45;1695867;84;20198;-81
2022/10/20 00:04:07;;;;;;;;;;;;;;;3.59;86.85;99308.70;1695554;84;21136;-82
2022/10/20 00:06:34;;;;;;;;;;;;;;;3.57;87.27;99313.07;1695832;84;20219;-81
2022/10/20 00:09:02;;;;;;;;;;;;;;;3.55;87.55;99312.23;1695731;84;20206;-83
2022/10/20 00:11:28;;;;;;;;;;;;;;;3.56;87.90;99317.84;1695628;84;20202;-81
2022/10/20 00:13:55;;;;;;;;;;;;;;;3.53;88.19;99315.26;1695947;84;20202;-82
2022/10/20 00:16:23;;;;;;;;;;;;;;;3.51;88.40;99320.92;1695762;84;21133;-82
2022/10/20 00:18:49;;;;;;;;;;;;;;;3.49;88.65;99321.38;1696077;84;20223;-80
2022/10/20 00:21:18;;;;;;;;;;;;;;;3.48;88.69;99335.25;1695888;84;20976;-83
2022/10/20 00:23:44;;;;;;;;;;;;;;;3.47;88.58;99321.84;1696089;84;20230;-81
2022/10/20 00:26:12;;;;;;;;;;;;;;;3.44;88.19;99333.11;1695878;84;20175;-79
2022/10/20 00:28:40;;;;;;;;;;;;;;;3.40;88.12;99326.67;1695654;84;21208;-81
2022/10/20 00:31:06;;;;;;;;;;;;;;;3.31;87.92;99329.78;1696039;84;20229;-81
2022/10/20 00:33:32;;;;;;;;;;;;;;;3.29;87.97;99331.50;1695794;84;20206;-80
2022/10/20 00:36:02;;;;;;;;;;;;;;;3.26;87.70;99331.55;1695564;84;20367;-82
2022/10/20 00:38:29;;;;;;;;;;;;;;;3.24;87.45;99338.48;1695159;84;21038;-81
2022/10/20 00:40:55;;;;;;;;;;;;;;;3.18;87.24;99332.05;1696034;84;21226;-80
2022/10/20 00:43:21;;;;;;;;;;;;;;;3.14;87.22;99329.91;1695825;84;20194;-80
2022/10/20 00:45:53;;;;;;;;;;;;;;;3.11;87.27;99337.73;1695706;84;20194;-82
2022/10/20 00:48:22;;;;;;;;;;;;;;;3.09;87.32;99337.30;1695925;84;21002;-80
2022/10/20 00:50:49;;;;;;;;;;;;;;;3.05;87.11;99338.20;1695793;84;20221;-82
2022/10/20 00:53:16;;;;;;;;;;;;;;;3.03;87.23;99340.81;1695761;84;21164;-82
2022/10/20 00:55:44;;;;;;;;;;;;;;;2.97;87.31;99332.59;1695676;84;20167;-81
2022/10/20 00:58:11;;;;;;;;;;;;;;;2.94;87.26;99336.55;1695905;84;20201;-82
2022/10/20 01:00:38;;;;;;;;;;;;;;;2.93;87.23;99338.70;1695890;84;20517;-80
2022/10/20 01:03:04;;;;;;;;;;;;;;;2.95;87.24;99339.55;1679200;84;20641;-81
2022/10/20 01:05:32;;;;;;;;;;;;;;;2.97;87.31;99346.89;1706419;84;20638;-81
2022/10/20 01:08:00;;;;;;;;;;;;;;;2.97;87.41;99345.59;1706462;84;20166;-81
2022/10/20 01:10:26;;;;;;;;;;;;;;;2.96;87.22;99345.19;1706690;84;20527;-80
2022/10/20 01:13:05;;;;;;;;;;;;;;;2.97;87.11;99342.14;1706660;84;20197;-81
2022/10/20 01:15:35;;;;;;;;;;;;;;;2.97;86.96;99344.74;1706613;84;20197;-81
2022/10/20 01:18:29;;;;;;;;;;;;;;;3.02;86.73;99348.62;1706454;84;21148;-81
2022/10/20 01:21:12;;;;;;;;;;;;;;;3.03;86.69;99350.36;1706640;84;20143;-81
2022/10/20 01:24:02;;;;;;;;;;;;;;;3.01;86.25;99339.97;1706641;84;20181;-81
2022/10/20 01:26:51;;;;;;;;;;;;;;;3.01;86.26;99350.78;1706213;84;20214;-81
2022/10/20 01:29:29;;;;;;;;;;;;;;;2.98;86.48;99347.33;1706664;84;20198;-81
2022/10/20 01:32:08;;;;;;;;;;;;;;;2.98;86.56;99340.84;1706511;84;21625;-82
2022/10/20 01:34:41;;;;;;;;;;;;;;;3.00;86.38;99352.97;1706502;84;20241;-81
2022/10/20 01:37:13;;;;;;;;;;;;;;;3.01;86.24;99354.67;1706710;84;20224;-80
2022/10/20 01:39:56;;;;;;;;;;;;;;;2.96;86.16;99356.88;1706405;84;20548;-83
2022/10/20 01:42:23;;;;;;;;;;;;;;;2.94;86.12;99353.44;1706763;84;20476;-82
2022/10/20 01:44:50;;;;;;;;;;;;;;;2.89;86.11;99357.80;1706538;84;21200;-82
2022/10/20 01:47:17;;;;;;;;;;;;;;;2.89;86.11;99356.92;1706566;84;20159;-80
2022/10/20 01:49:45;;;;;;;;;;;;;;;2.86;86.10;99356.52;1706522;84;20413;-81
2022/10/20 01:52:11;;;;;;;;;;;;;;;2.83;86.20;99361.73;1706407;84;21131;-82
2022/10/20 01:54:38;;;;;;;;;;;;;;;2.76;86.50;99359.59;1706584;84;20544;-80
2022/10/20 01:57:25;;;;;;;;;;;;;;;2.74;86.73;99364.36;1706436;84;21147;-83
2022/10/20 01:59:58;;;;;;;;;;;;;;;2.72;86.79;99372.60;1705606;84;20516;-81
2022/10/20 02:02:45;;;;;;;;;;;;;;;2.77;86.94;99378.64;1706642;84;20518;-81
2022/10/20 02:05:27;;;;;;;;;;;;;;;2.80;86.96;99381.23;1708462;84;20209;-82
2022/10/20 02:08:03;;;;;;;;;;;;;;;2.81;87.03;99385.56;1708443;82;20205;-82
2022/10/20 02:10:33;;;;;;;;;;;;;;;2.84;86.96;99386.85;1708000;84;21183;-80
2022/10/20 02:13:02;;;;;;;;;;;;;;;2.85;86.62;99383.81;1708344;84;20651;-81
2022/10/20 02:15:30;;;;;;;;;;;;;;;2.89;86.52;99378.59;1682838;84;20209;-82
2022/10/20 02:17:59;;;;;;;;;;;;;;;2.92;86.47;99382.45;1707893;84;20211;-81
2022/10/20 02:20:27;;;;;;;;;;;;;;;2.94;86.38;99384.63;1708173;84;20209;-81
2022/10/20 02:22:55;;;;;;;;;;;;;;;2.96;86.20;99385.47;1708349;84;21208;-81
2022/10/20 02:25:22;;;;;;;;;;;;;;;2.96;86.17;99381.58;1708226;84;20256;-82
2022/10/20 02:27:51;;;;;;;;;;;;;;;2.97;86.13;99389.78;1708220;84;20210;-83
2022/10/20 02:30:17;;;;;;;;;;;;;;;3.01;86.14;99387.16;1708496;84;20174;-81
2022/10/20 02:32:51;;;;;;;;;;;;;;;3.03;86.32;99388.05;1708366;84;20226;-80
2022/10/20 02:35:17;;;;;;;;;;;;;;;3.02;86.57;99392.80;1682410;84;21143;-81
2022/10/20 02:37:44;;;;;;;;;;;;;;;3.00;86.75;99398.45;1708469;84;20209;-80
2022/10/20 02:40:11;;;;;;;;;;;;;;;2.98;86.91;99398.02;1708412;84;20200;-81
2022/10/20 02:42:39;;;;;;;;;;;;;;;3.02;86.85;99394.11;1708050;84;20332;-82
2022/10/20 02:45:07;;;;;;;;;;;;;;;3.02;86.73;99392.80;1708083;84;20198;-81
2022/10/20 02:47:34;;;;;;;;;;;;;;;3.01;86.97;99407.96;1708266;84;21159;-82
2022/10/20 02:50:01;;;;;;;;;;;;;;;2.98;87.09;99404.52;1708194;84;20198;-82
2022/10/20 02:52:27;;;;;;;;;;;;;;;2.94;86.97;99392.42;1708791;84;20242;-82
2022/10/20 02:54:54;;;;;;;;;;;;;;;2.94;86.91;99401.52;1708040;82;20212;-82
2022/10/20 02:57:21;;;;;;;;;;;;;;;2.95;86.81;99396.73;1708415;84;20179;-81
2022/10/20 02:59:47;;;;;;;;;;;;;;;2.92;86.79;99412.33;1708395;84;21161;-80
2022/10/20 03:02:13;;;;;;;;;;;;;;;2.92;86.83;99403.69;1708350;84;20528;-82
2022/10/20 03:04:40;;;;;;;;;;;;;;;2.90;86.74;99407.59;1697135;84;20226;-83
2022/10/20 03:07:07;;;;;;;;;;;;;;;2.87;86.61;99410.20;1695504;84;20242;-81
2022/10/20 03:09:34;;;;;;;;;;;;;;;2.88;86.85;99417.58;1695718;84;20190;-81
2022/10/20 03:12:01;;;;;;;;;;;;;;;2.88;86.76;99413.23;1695661;84;21106;-81
2022/10/20 03:14:27;;;;;;;;;;;;;;;2.91;86.68;99413.67;1696198;84;20595;-83
2022/10/20 03:16:54;;;;;;;;;;;;;;;2.88;86.51;99422.78;1695602;84;20257;-82
2022/10/20 03:19:21;;;;;;;;;;;;;;;2.86;86.43;99411.09;1695642;84;21171;-81
2022/10/20 03:21:48;;;;;;;;;;;;;;;2.85;86.70;99412.39;1695749;84;20168;-81
2022/10/20 03:24:15;;;;;;;;;;;;;;;2.85;86.86;99411.95;1695649;84;21171;-81
2022/10/20 03:26:41;;;;;;;;;;;;;;;2.88;86.70;99412.38;1695820;84;20616;-81
2022/10/20 03:29:09;;;;;;;;;;;;;;;2.88;86.72;99414.53;1695811;84;20207;-81
2022/10/20 03:31:35;;;;;;;;;;;;;;;2.88;86.83;99408.03;1695719;84;20531;-82
2022/10/20 03:34:01;;;;;;;;;;;;;;;2.88;86.82;99408.03;1695505;84;20155;-83
2022/10/20 03:36:29;;;;;;;;;;;;;;;2.84;86.81;99416.73;1695963;84;21054;-80
2022/10/20 03:38:55;;;;;;;;;;;;;;;2.81;86.90;99411.55;1695527;84;20251;-81
2022/10/20 03:41:21;;;;;;;;;;;;;;;2.80;87.02;99421.50;1696090;84;20230;-81
2022/10/20 03:43:48;;;;;;;;;;;;;;;2.77;87.11;99412.41;1695558;84;20456;-79
2022/10/20 03:46:14;;;;;;;;;;;;;;;2.76;87.29;99417.20;1696127;84;20239;-81
2022/10/20 03:48:41;;;;;;;;;;;;;;;2.74;87.26;99414.61;1695705;84;21211;-82
2022/10/20 03:51:08;;;;;;;;;;;;;;;2.72;87.27;99415.05;1695536;84;20178;-82
2022/10/20 03:53:34;;;;;;;;;;;;;;;2.72;87.23;99424.56;1696032;84;20249;-81
2022/10/20 03:56:07;;;;;;;;;;;;;;;2.72;87.15;99420.66;1695648;84;20193;-81
2022/10/20 03:58:34;;;;;;;;;;;;;;;2.70;87.29;99421.97;1695688;84;20221;-81
2022/10/20 04:01:02;;;;;;;;;;;;;;;2.68;87.24;99421.13;1695764;84;21786;-82
2022/10/20 04:03:30;;;;;;;;;;;;;;;2.68;87.21;99425.46;1676736;84;20158;-82
2022/10/20 04:05:56;;;;;;;;;;;;;;;2.66;87.29;99412.48;1706475;84;20528;-82
2022/10/20 04:08:23;;;;;;;;;;;;;;;2.67;87.23;99418.52;1706433;84;20623;-81
2022/10/20 04:10:49;;;;;;;;;;;;;;;2.65;87.22;99418.53;1706670;84;20257;-79
2022/10/20 04:13:17;;;;;;;;;;;;;;;2.65;87.20;99425.47;1706345;84;20198;-82
2022/10/20 04:15:44;;;;;;;;;;;;;;;2.62;87.30;99428.07;1706860;84;20190;-81
2022/10/20 04:18:10;;;;;;;;;;;;;;;2.59;87.56;99428.52;1706531;84;20209;-81
2022/10/20 04:20:37;;;;;;;;;;;;;;;2.59;87.42;99418.58;1706808;84;20202;-82
2022/10/20 04:23:03;;;;;;;;;;;;;;;2.59;87.52;99416.83;1706371;84;20225;-82
2022/10/20 04:25:30;;;;;;;;;;;;;;;2.59;87.63;99428.52;1706453;84;21884;-80
2022/10/20 04:27:58;;;;;;;;;;;;;;;2.60;87.68;99431.52;1706505;84;20211;-81
2022/10/20 04:30:25;;;;;;;;;;;;;;;2.57;87.57;99423.77;1706556;84;20985;-80
2022/10/20 04:32:53;;;;;;;;;;;;;;;2.58;87.62;99425.48;1706568;84;20186;-81
2022/10/20 04:35:20;;;;;;;;;;;;;;;2.58;87.70;99433.27;1706294;84;20226;-81
2022/10/20 04:37:46;;;;;;;;;;;;;;;2.58;87.84;99441.06;1706761;84;21123;-80
2022/10/20 04:40:13;;;;;;;;;;;;;;;2.52;88.00;99434.61;1706533;84;20174;-81
2022/10/20 04:42:39;;;;;;;;;;;;;;;2.51;88.16;99436.77;1706689;84;20174;-80
2022/10/20 04:45:06;;;;;;;;;;;;;;;2.53;88.23;99435.02;1706617;84;20361;-83
2022/10/20 04:47:32;;;;;;;;;;;;;;;2.55;88.25;99441.06;1706627;84;20201;-82
2022/10/20 04:49:58;;;;;;;;;;;;;;;2.54;88.10;99441.07;1706513;84;21744;-82
2022/10/20 04:52:25;;;;;;;;;;;;;;;2.53;88.21;99445.41;1706293;84;20209;-81
2022/10/20 04:54:51;;;;;;;;;;;;;;;2.54;88.26;99446.27;1706876;84;20209;-81
2022/10/20 04:57:18;;;;;;;;;;;;;;;2.56;88.17;99448.00;1706557;84;20964;-81
2022/10/20 04:59:44;;;;;;;;;;;;;;;2.59;88.05;99451.89;1706622;84;20622;-81
2022/10/20 05:02:11;;;;;;;;;;;;;;;2.59;87.87;99449.30;1706465;84;21122;-81
2022/10/20 05:04:37;;;;;;;;;;;;;;;2.58;88.03;99450.59;1700001;84;20197;-82
2022/10/20 05:07:03;;;;;;;;;;;;;;;2.57;88.14;99452.34;1695730;84;20258;-80
2022/10/20 05:09:31;;;;;;;;;;;;;;;2.59;88.07;99460.98;1695768;84;20415;-81
2022/10/20 05:11:59;;;;;;;;;;;;;;;2.60;88.16;99469.19;1695547;84;20167;-80
2022/10/20 05:14:26;;;;;;;;;;;;;;;2.64;88.27;99469.19;1695732;84;21129;-80
2022/10/20 05:16:53;;;;;;;;;;;;;;;2.65;88.23;99465.73;1695535;84;20206;-79
2022/10/20 05:19:20;;;;;;;;;;;;;;;2.63;88.20;99472.23;1695759;84;20476;-81
2022/10/20 05:21:46;;;;;;;;;;;;;;;2.65;88.16;99467.03;1695891;84;20205;-81
2022/10/20 05:24:14;;;;;;;;;;;;;;;2.66;88.09;99465.73;1695876;84;20175;-81
2022/10/20 05:26:42;;;;;;;;;;;;;;;2.68;88.35;99481.31;1695871;84;21808;-81
2022/10/20 05:29:09;;;;;;;;;;;;;;;2.65;88.61;99477.42;1696003;84;20227;-81
2022/10/20 05:31:40;;;;;;;;;;;;;;;2.66;88.74;99484.36;1695713;84;20543;-80
2022/10/20 05:34:08;;;;;;;;;;;;;;;2.66;88.97;99486.52;1695811;84;20201;-83
2022/10/20 05:36:34;;;;;;;;;;;;;;;2.66;89.31;99487.81;1695881;84;20192;-82
2022/10/20 05:39:00;;;;;;;;;;;;;;;2.64;89.49;99485.66;1696064;84;21124;-79
2022/10/20 05:41:29;;;;;;;;;;;;;;;2.62;89.80;99494.31;1695841;84;20206;-81
2022/10/20 05:43:58;;;;;;;;;;;;;;;2.57;90.01;99493.91;1695782;84;20217;-82
2022/10/20 05:46:29;;;;;;;;;;;;;;;2.53;90.43;99493.91;1695629;84;20206;-81
2022/10/20 05:48:58;;;;;;;;;;;;;;;2.52;90.79;99491.75;1695619;84;20198;-81
2022/10/20 05:51:26;;;;;;;;;;;;;;;2.52;91.07;99490.45;1695891;84;21135;-80
2022/10/20 05:53:56;;;;;;;;;;;;;;;2.51;91.11;99509.93;1695614;84;20155;-79
2022/10/20 05:56:22;;;;;;;;;;;;;;;2.48;91.30;99499.10;1696071;84;20224;-81
2022/10/20 05:58:49;;;;;;;;;;;;;;;2.49;91.39;99506.03;1696042;84;20582;-81
2022/10/20 06:01:23;;;;;;;;;;;;;;;2.48;91.60;99506.89;1695840;84;20297;-81
2022/10/20 06:03:57;;;;;;;;;;;;;;;2.48;92.04;99515.98;1695206;84;21100;-83
2022/10/20 06:06:25;;;;;;;;;;;;;;;2.48;92.20;99509.93;1695667;84;21077;-82
2022/10/20 06:08:52;;;;;;;;;;;;;;;2.47;92.36;99517.28;1695589;84;20329;-81
2022/10/20 06:11:19;;;;;;;;;;;;;;;2.47;92.50;99518.17;1695972;84;20199;-80
2022/10/20 06:13:45;;;;;;;;;;;;;;;2.46;92.90;99519.02;1695699;84;20171;-81
2022/10/20 06:16:15;;;;;;;;;;;;;;;2.44;93.08;99523.77;1695939;84;21728;-80
2022/10/20 06:18:42;;;;;;;;;;;;;;;2.43;93.48;99521.62;1695843;84;20195;-81
2022/10/20 06:21:11;;;;;;;;;;;;;;;2.45;93.65;99525.52;1695713;84;20223;-81
2022/10/20 06:23:38;;;;;;;;;;;;;;;2.48;93.70;99527.67;1695554;84;21040;-81
2022/10/20 06:26:08;;;;;;;;;;;;;;;2.52;93.98;99529.83;1695661;84;20163;-81
2022/10/20 06:28:37;;;;;;;;;;;;;;;2.55;93.95;99525.92;1695682;84;21140;-80
2022/10/20 06:31:14;;;;;;;;;;;;;;;2.56;94.07;99533.72;1695856;84;20526;-81
2022/10/20 06:33:42;;;;;;;;;;;;;;;2.58;94.03;99536.31;1695599;84;20433;-80
2022/10/20 06:36:09;;;;;;;;;;;;;;;2.62;94.30;99530.23;1695874;84;20171;-81
2022/10/20 06:38:35;;;;;;;;;;;;;;;2.65;94.30;99530.67;1696102;84;20213;-82
2022/10/20 06:41:04;;;;;;;;;;;;;;;2.64;94.30;99536.31;1695802;84;21160;-81
2022/10/20 06:43:31;;;;;;;;;;;;;;;2.64;94.20;99535.42;1695452;84;20221;-83
2022/10/20 06:45:59;;;;;;;;;;;;;;;2.66;94.41;99542.81;1695890;84;20202;-81
2022/10/20 06:48:25;;;;;;;;;;;;;;;2.72;94.54;99545.37;1695685;84;20214;-80
2022/10/20 06:50:55;;;;;;;;;;;;;;;2.73;94.49;99554.46;1696052;84;20194;-82
2022/10/20 06:53:24;;;;;;;;;;;;;;;2.72;94.44;99547.56;1695698;84;22292;-81
2022/10/20 06:55:58;;;;;;;;;;;;;;;2.76;94.61;99549.27;1695597;84;20254;-82
2022/10/20 06:58:24;;;;;;;;;;;;;;;2.78;94.75;99549.27;1695471;84;20223;-80
2022/10/20 07:01:06;;;;;;;;;;;;;;;2.78;94.33;99554.02;1695800;84;20250;-81
2022/10/20 07:03:34;;;;;;;;;;;;;;;2.79;94.44;99556.17;1695449;84;20213;-81
2022/10/20 07:06:00;;;;;;;;;;;;;;;2.77;94.48;99556.61;1706472;82;21111;-82
2022/10/20 07:08:28;;;;;;;;;;;;;;;2.79;94.49;99554.46;1708192;84;20212;-83
2022/10/20 07:11:13;;;;;;;;;;;;;;;2.79;94.27;99561.37;1708538;83;20237;-81
2022/10/20 07:13:42;;;;;;;;;;;;;;;2.81;94.47;99563.55;1708091;84;20147;-81
2022/10/20 07:16:10;;;;;;;;;;;;;;;2.81;94.31;99558.77;1708432;84;20189;-82
2022/10/20 07:18:37;;;;;;;;;;;;;;;2.81;94.20;99569.16;1708293;84;21155;-82
2022/10/20 07:21:06;;;;;;;;;;;;;;;2.80;94.38;99568.30;1708055;82;20257;-82
2022/10/20 07:23:34;;;;;;;;;;;;;;;2.80;94.37;99563.11;1708200;84;20983;-81
2022/10/20 07:26:08;;;;;;;;;;;;;;;2.84;94.64;99571.34;1708260;84;20147;-81
2022/10/20 07:28:35;;;;;;;;;;;;;;;2.85;94.74;99574.80;1708515;84;20515;-81
2022/10/20 07:31:04;;;;;;;;;;;;;;;2.83;94.86;99577.84;1708257;83;21234;-81
2022/10/20 07:33:30;;;;;;;;;;;;;;;2.81;94.92;99570.05;1708050;84;20713;-80
2022/10/20 07:35:58;;;;;;;;;;;;;;;2.80;95.12;99573.50;1706997;84;21053;-80
2022/10/20 07:38:25;;;;;;;;;;;;;;;2.83;95.22;99576.09;1708288;84;20808;-82
2022/10/20 07:40:51;;;;;;;;;;;;;;;2.80;95.42;99581.30;1708393;84;20150;-81
2022/10/20 07:43:19;;;;;;;;;;;;;;;2.78;95.52;99581.30;1708143;84;21145;-82
2022/10/20 07:45:45;;;;;;;;;;;;;;;2.77;95.63;99583.89;1708315;84;20218;-82
2022/10/20 07:48:12;;;;;;;;;;;;;;;2.81;95.79;99592.13;1708497;84;20213;-81
2022/10/20 07:50:39;;;;;;;;;;;;;;;2.82;95.67;99586.05;1708326;84;20201;-82
2022/10/20 07:53:06;;;;;;;;;;;;;;;2.82;95.63;99592.55;1707873;84;20214;-81
2022/10/20 07:55:33;;;;;;;;;;;;;;;2.82;95.78;99591.69;1708252;84;20670;-80
2022/10/20 07:58:00;;;;;;;;;;;;;;;2.81;95.83;99601.23;1708311;84;20193;-81
2022/10/20 08:00:26;;;;;;;;;;;;;;;2.83;95.83;99602.09;1708405;84;20230;-81
2022/10/20 08:02:52;;;;;;;;;;;;;;;2.84;96.11;99606.42;1708563;84;20539;-82
2022/10/20 08:05:18;;;;;;;;;;;;;;;2.86;96.20;99599.48;1702639;84;20414;-81
2022/10/20 08:07:45;;;;;;;;;;;;;;;2.86;96.44;99602.09;1695657;84;21216;-81
2022/10/20 08:10:11;;;;;;;;;;;;;;;2.89;96.47;99607.28;1695790;84;20206;-83
2022/10/20 08:12:38;;;;;;;;;;;;;;;2.92;96.44;99605.95;1695820;84;20191;-82
2022/10/20 08:15:06;;;;;;;;;;;;;;;2.96;96.41;99608.13;1695650;84;20221;-80
2022/10/20 08:17:33;;;;;;;;;;;;;;;2.96;96.86;99610.29;1695712;84;20234;-80
2022/10/20 08:19:59;;;;;;;;;;;;;;;2.95;97.10;99614.19;1696120;84;21128;-78
2022/10/20 08:22:26;;;;;;;;;;;;;;;2.94;96.94;99615.94;1695649;84;20190;-79
2022/10/20 08:24:53;;;;;;;;;;;;;;;2.97;97.00;99615.05;1695718;84;20238;-81
2022/10/20 08:27:19;;;;;;;;;;;;;;;3.00;97.12;99615.05;1695502;84;20206;-82
2022/10/20 08:29:45;;;;;;;;;;;;;;;3.03;97.01;99618.94;1695708;84;20206;-83
2022/10/20 08:32:13;;;;;;;;;;;;;;;3.03;96.77;99623.28;1695729;84;21638;-79
2022/10/20 08:34:39;;;;;;;;;;;;;;;3.05;96.55;99631.49;1695696;84;20242;-81
2022/10/20 08:37:06;;;;;;;;;;;;;;;3.09;96.45;99627.14;1695895;84;20195;-79
2022/10/20 08:39:32;;;;;;;;;;;;;;;3.14;96.42;99628.00;1695864;84;20230;-80
2022/10/20 08:41:59;;;;;;;;;;;;;;;3.14;96.34;99629.30;1695904;84;20140;-79
2022/10/20 08:44:30;;;;;;;;;;;;;;;3.15;96.39;99629.74;1695735;84;21849;-80
2022/10/20 08:46:58;;;;;;;;;;;;;;;3.16;96.52;99631.45;1695838;84;20206;-82
2022/10/20 08:49:27;;;;;;;;;;;;;;;3.20;96.95;99633.19;1696002;84;20861;-80
2022/10/20 08:51:54;;;;;;;;;;;;;;;3.23;97.18;99638.39;1695789;84;20207;-80
2022/10/20 08:54:20;;;;;;;;;;;;;;;3.23;97.24;99642.70;1695854;84;20206;-81
2022/10/20 08:56:46;;;;;;;;;;;;;;;3.24;97.38;99644.00;1695775;84;21879;-79
2022/10/20 08:59:28;;;;;;;;;;;;;;;3.30;97.24;99662.20;1695982;84;20609;-81
2022/10/20 09:01:55;;;;;;;;;;;;;;;3.33;97.10;99654.84;1694620;84;20214;-80
2022/10/20 09:04:25;;;;;;;;;;;;;;;3.35;96.67;99653.94;1695632;84;20152;-82
2022/10/20 09:06:55;;;;;;;;;;;;;;;3.35;96.69;99656.55;1707502;84;20182;-82
2022/10/20 09:09:22;;;;;;;;;;;;;;;3.34;96.65;99656.55;1708116;84;21545;-81
2022/10/20 09:11:49;;;;;;;;;;;;;;;3.33;96.68;99658.30;1708320;84;20332;-80
2022/10/20 09:14:17;;;;;;;;;;;;;;;3.38;96.79;99662.59;1708199;84;20257;-80
2022/10/20 09:16:45;;;;;;;;;;;;;;;3.39;97.10;99663.05;1708628;84;20221;-80
2022/10/20 09:19:21;;;;;;;;;;;;;;;3.41;96.93;99659.99;1708546;84;20224;-81
2022/10/20 09:21:51;;;;;;;;;;;;;;;3.41;96.74;99665.20;1708504;84;21569;-81
2022/10/20 09:24:19;;;;;;;;;;;;;;;3.41;96.80;99662.16;1707998;84;20230;-81
2022/10/20 09:26:46;;;;;;;;;;;;;;;3.46;96.73;99663.45;1708582;84;20225;-81
2022/10/20 09:29:20;;;;;;;;;;;;;;;3.49;96.64;99667.34;1708476;84;20182;-80
2022/10/20 09:31:52;;;;;;;;;;;;;;;3.53;96.69;99672.95;1708758;84;20197;-81
2022/10/20 09:34:29;;;;;;;;;;;;;;;3.57;96.78;99678.59;1708280;84;21143;-81
2022/10/20 09:37:05;;;;;;;;;;;;;;;3.63;96.47;99673.37;1708496;84;20177;-81
2022/10/20 09:39:48;;;;;;;;;;;;;;;3.65;95.91;99675.53;1708337;84;20210;-82
2022/10/20 09:42:23;;;;;;;;;;;;;;;3.67;95.71;99683.33;1674381;84;20209;-82
2022/10/20 09:44:55;;;;;;;;;;;;;;;3.66;95.51;99690.25;1708312;82;20955;-82
2022/10/20 09:47:22;;;;;;;;;;;;;;;3.66;95.22;99692.85;1708506;84;21115;-83
2022/10/20 09:49:51;;;;;;;;;;;;;;;3.68;95.07;99687.23;1708276;84;20445;-77
2022/10/20 09:52:22;;;;;;;;;;;;;;;3.68;95.06;99678.12;1708268;84;20138;-81
2022/10/20 09:54:53;;;;;;;;;;;;;;;3.70;94.90;99695.89;1708388;84;20194;-80
2022/10/20 09:57:21;;;;;;;;;;;;;;;3.72;94.96;99690.23;1708441;84;20214;-79
2022/10/20 09:59:49;;;;;;;;;;;;;;;3.76;94.91;99698.03;1708595;84;21127;-81
2022/10/20 10:02:22;;;;;;;;;;;;;;;3.79;94.76;99704.53;1708312;84;20210;-81
2022/10/20 10:04:51;;;;;;;;;;;;;;;3.82;94.95;99705.83;1708214;82;20233;-81
2022/10/20 10:07:27;;;;;;;;;;;;;;;3.86;95.21;99712.73;1695716;84;20337;-80
2022/10/20 10:10:03;;;;;;;;;;;;;;;3.88;95.19;99710.98;1695803;84;20186;-82
2022/10/20 10:12:30;;;;;;;;;;;;;;;3.89;94.73;99703.63;1695775;84;21920;-80
2022/10/20 10:14:58;;;;;;;;;;;;;;;3.89;94.57;99710.13;1695735;84;20667;-81
2022/10/20 10:17:39;;;;;;;;;;;;;;;3.88;94.74;99717.50;1695577;84;20940;-81
2022/10/20 10:20:08;;;;;;;;;;;;;;;3.89;94.77;99710.13;1696050;84;20532;-81
2022/10/20 10:22:36;;;;;;;;;;;;;;;3.90;94.49;99707.94;1692487;84;20522;-79
2022/10/20 10:25:03;;;;;;;;;;;;;;;3.92;94.31;99714.02;1695965;84;21221;-80
2022/10/20 10:27:32;;;;;;;;;;;;;;;3.95;94.18;99720.52;1695826;84;20551;-80
2022/10/20 10:30:23;;;;;;;;;;;;;;;3.97;94.32;99725.70;1695804;84;20939;-81
2022/10/20 10:32:50;;;;;;;;;;;;;;;3.99;94.21;99722.23;1669148;86;20887;-79
2022/10/20 10:35:24;;;;;;;;;;;;;;;4.06;94.17;99725.67;1688537;84;20537;-82
2022/10/20 10:37:52;;;;;;;;;;;;;;;4.09;93.26;99728.27;1695997;84;20218;-80
2022/10/20 10:40:20;;;;;;;;;;;;;;;4.14;93.07;99720.44;1695551;84;20202;-80
2022/10/20 10:42:53;;;;;;;;;;;;;;;4.18;93.02;99718.23;1695738;84;20175;-81
2022/10/20 10:45:40;;;;;;;;;;;;;;;4.23;92.37;99721.23;1695618;84;20217;-80
2022/10/20 10:48:10;;;;;;;;;;;;;;;4.25;92.26;99729.03;1695900;84;20183;-81
2022/10/20 10:50:43;;;;;;;;;;;;;;;4.32;92.06;99724.24;1695214;84;21155;-80
2022/10/20 10:53:19;;;;;;;;;;;;;;;4.37;91.71;99727.69;1695701;84;20749;-80
2022/10/20 10:55:49;;;;;;;;;;;;;;;4.45;91.50;99721.99;1695806;84;20208;-81
2022/10/20 10:58:22;;;;;;;;;;;;;;;4.55;90.95;99716.70;1695952;84;20875;-81
2022/10/20 11:01:15;;;;;;;;;;;;;;;4.63;90.84;99714.91;1695970;84;20216;-81
2022/10/20 11:03:45;;;;;;;;;;;;;;;4.72;90.38;99723.95;1695514;84;21035;-80
2022/10/20 11:06:46;;;;;;;;;;;;;;;4.81;89.66;99714.77;1695577;83;20135;-79
2022/10/20 11:09:26;;;;;;;;;;;;;;;4.86;89.36;99708.64;1680649;84;20163;-80
2022/10/20 11:12:07;;;;;;;;;;;;;;;4.94;88.50;99708.14;1695763;84;21088;-81
2022/10/20 11:14:45;;;;;;;;;;;;;;;5.04;88.05;99708.48;1695707;84;20619;-80
2022/10/20 11:17:27;;;;;;;;;;;;;;;5.23;87.84;99712.22;1696121;84;21069;-80
2022/10/20 11:20:03;;;;;;;;;;;;;;;5.34;87.39;99714.30;1695405;84;20230;-80
2022/10/20 11:22:50;;;;;;;;;;;;;;;5.37;86.32;99721.64;1695384;83;20147;-79
2022/10/20 11:25:37;;;;;;;;;;;;;;;5.32;85.99;99733.02;1695587;84;20222;-80
2022/10/20 11:28:03;;;;;;;;;;;;;;;5.24;86.03;99733.53;1696147;84;20139;-80
2022/10/20 11:30:30;;;;;;;;;;;;;;;5.18;86.32;99727.49;1695617;84;21160;-81
2022/10/20 11:33:15;;;;;;;;;;;;;;;5.18;86.43;99727.49;1674090;84;20222;-81
2022/10/20 11:35:45;;;;;;;;;;;;;;;5.18;86.65;99727.49;1695643;84;20466;-80
2022/10/20 11:38:18;;;;;;;;;;;;;;;5.17;86.53;99736.19;1695831;84;20194;-81
2022/10/20 11:40:48;;;;;;;;;;;;;;;5.17;86.44;99736.63;1694976;84;20222;-81
2022/10/20 11:43:25;;;;;;;;;;;;;;;5.20;86.69;99730.95;1695946;84;20162;-81
2022/10/20 11:45:56;;;;;;;;;;;;;;;5.24;86.46;99745.27;1695400;84;20163;-80
2022/10/20 11:48:29;;;;;;;;;;;;;;;5.27;86.97;99746.55;1695864;84;20208;-81
2022/10/20 11:51:14;;;;;;;;;;;;;;;5.27;87.02;99749.16;1695572;84;20544;-81
2022/10/20 11:53:59;;;;;;;;;;;;;;;5.24;87.20;99744.81;1695468;84;20242;-81
2022/10/20 11:56:46;;;;;;;;;;;;;;;5.25;87.26;99753.08;1695387;84;21585;-81
2022/10/20 11:59:33;;;;;;;;;;;;;;;5.29;87.51;99757.83;1695605;84;20219;-81
2022/10/20 12:02:21;;;;;;;;;;;;;;;5.31;87.46;99761.28;1695510;83;20210;-81
2022/10/20 12:04:59;;;;;;;;;;;;;;;5.29;86.88;99765.66;1695773;84;20206;-80
2022/10/20 12:07:54;;;;;;;;;;;;;;;5.21;87.39;99766.59;1695469;84;20230;-81
2022/10/20 12:10:29;;;;;;;;;;;;;;;5.19;87.92;99772.69;1695779;84;22147;-81
2022/10/20 12:13:16;;;;;;;;;;;;;;;5.14;87.53;99777.94;1695238;84;20430;-80
2022/10/20 12:15:47;;;;;;;;;;;;;;;5.12;87.96;99786.22;1695637;84;20545;-80
2022/10/20 12:18:20;;;;;;;;;;;;;;;5.11;88.16;99792.34;1695513;84;20265;-81
2022/10/20 12:20:48;;;;;;;;;;;;;;;5.11;88.55;99798.86;1695821;84;20269;-81
2022/10/20 12:23:44;;;;;;;;;;;;;;;5.12;88.84;99799.71;1695510;84;21154;-80
2022/10/20 12:26:32;;;;;;;;;;;;;;;5.13;89.11;99804.92;1695880;84;20194;-79
2022/10/20 12:29:00;;;;;;;;;;;;;;;5.10;88.86;99820.59;1695619;84;20230;-81
2022/10/20 12:32:04;;;;;;;;;;;;;;;5.08;89.15;99818.44;1695602;84;20246;-80
2022/10/20 12:34:39;;;;;;;;;;;;;;;5.06;89.23;99820.61;1695330;84;20177;-81
2022/10/20 12:37:07;;;;;;;;;;;;;;;5.03;89.59;99816.30;1695343;84;21165;-80
2022/10/20 12:39:33;;;;;;;;;;;;;;;5.05;89.70;99830.19;1695441;84;20222;-81
2022/10/20 12:42:00;;;;;;;;;;;;;;;5.06;89.70;99823.22;1695550;84;20135;-81
2022/10/20 12:44:30;;;;;;;;;;;;;;;5.08;90.08;99834.09;1695638;84;20175;-80
2022/10/20 12:47:04;;;;;;;;;;;;;;;5.11;89.82;99831.88;1695536;84;20226;-79
2022/10/20 12:49:32;;;;;;;;;;;;;;;5.13;89.33;99832.75;1695664;84;22254;-80
2022/10/20 12:51:59;;;;;;;;;;;;;;;5.17;89.45;99834.45;1695498;84;20201;-81
2022/10/20 12:54:36;;;;;;;;;;;;;;;5.21;89.13;99843.97;1695508;84;20230;-80
2022/10/20 12:57:07;;;;;;;;;;;;;;;5.23;88.27;99845.27;1695702;84;20619;-79
2022/10/20 12:59:34;;;;;;;;;;;;;;;5.25;87.96;99855.27;1690321;84;20500;-80
2022/10/20 13:02:15;;;;;;;;;;;;;;;5.29;88.27;99856.97;1695407;84;21860;-80
2022/10/20 13:04:56;;;;;;;;;;;;;;;5.29;88.19;99865.66;1695451;84;20210;-82
2022/10/20 13:07:47;;;;;;;;;;;;;;;5.34;88.01;99865.63;1695514;84;20551;-81
2022/10/20 13:10:29;;;;;;;;;;;;;;;5.37;87.60;99870.38;1695675;84;20341;-81
2022/10/20 13:13:02;;;;;;;;;;;;;;;5.38;87.63;99879.09;1695595;84;20509;-82
2022/10/20 13:15:37;;;;;;;;;;;;;;;5.40;87.63;99886.02;1696132;84;21130;-80